Glenn, Georgia
Current Conditions -  °F | °C
As of 7:35 AM on Monday 20 Oct 2014 (Local Time) from KLGC Reporting Station
Clear Clear  
Wind Chill: 46°   Ceiling: Unl
Heat Index: 46°   Visibility: 7mi
Dew Point: 46°   Wind: 0mph
Humidity: 99%   Direction: NA
Pressure: 30.1"   Gusts: NA
Location:  33.15°N, 85.2°W
Report Text: KLGC 201135Z AUTO 00000KT 7SM CLR 08/08 A3010 RMK AO2 T00760075
Loading
Personal Weather Stations






























Interactive Weather Map
Tropical Storm Tracking
New forecast layout! Learn more

10-Day Weather Forecast

Advertisements
Track Severe Weather on mobile